Private Wetterstation Sandau
Wetterdaten: Donnerstag, 12.01.2012
Datum Zeit Temp. A. Feuchte A. Luftdruck Regen Wind Richtung Richtung Taupunkt Windchill
12.01.2012 00:02 7,9 C 91 % 1027,4 hPa 0,0 l/m 16,6 km/h (3 Bft) W-SW 247 6,5 C 5,1 C
12.01.2012 00:07 7,9 C 91 % 1027,4 hPa 0,0 l/m 18,7 km/h (3 Bft) W-SW 247 6,5 C 4,9 C
12.01.2012 00:12 7,9 C 91 % 1027,4 hPa 0,0 l/m 15,1 km/h (3 Bft) W-SW 247 6,5 C 5,3 C
12.01.2012 00:17 7,9 C 91 % 1027,3 hPa 0,0 l/m 7,9 km/h (2 Bft) W-NW 292 6,5 C 6,6 C
12.01.2012 00:22 7,9 C 91 % 1027,4 hPa 0,0 l/m 18,0 km/h (3 Bft) W-SW 247 6,5 C 4,9 C
12.01.2012 00:27 7,9 C 91 % 1027,3 hPa 0,0 l/m 25,9 km/h (4 Bft) W-SW 247 6,5 C 4,2 C
12.01.2012 00:32 7,9 C 91 % 1027,2 hPa 0,0 l/m 18,0 km/h (3 Bft) W-SW 247 6,5 C 4,9 C
12.01.2012 00:37 7,9 C 91 % 1027,1 hPa 0,0 l/m 16,9 km/h (3 Bft) W 270 6,5 C 5,1 C
12.01.2012 00:42 7,9 C 91 % 1026,9 hPa 0,0 l/m 16,9 km/h (3 Bft) W-SW 247 6,5 C 5,1 C
12.01.2012 00:47 7,9 C 91 % 1026,8 hPa 0,0 l/m 16,9 km/h (3 Bft) W 270 6,5 C 5,1 C
12.01.2012 00:52 7,9 C 91 % 1026,8 hPa 0,0 l/m 14,4 km/h (3 Bft) W-SW 247 6,5 C 5,4 C
12.01.2012 00:57 7,8 C 91 % 1026,5 hPa 0,0 l/m 11,2 km/h (2 Bft) W-NW 292 6,4 C 5,8 C
12.01.2012 01:02 7,8 C 91 % 1026,6 hPa 0,0 l/m 16,9 km/h (3 Bft) W-SW 247 6,4 C 5,0 C
12.01.2012 01:07 7,8 C 91 % 1026,5 hPa 0,0 l/m 22,0 km/h (4 Bft) W-SW 247 6,4 C 4,4 C
12.01.2012 01:12 7,8 C 91 % 1026,5 hPa 0,0 l/m 7,2 km/h (2 Bft) W 270 6,4 C 6,6 C
12.01.2012 01:17 7,8 C 91 % 1026,2 hPa 0,0 l/m 8,6 km/h (2 Bft) SW 225 6,4 C 6,3 C
12.01.2012 01:22 7,8 C 91 % 1026,3 hPa 0,0 l/m 13,7 km/h (3 Bft) W-SW 247 6,4 C 5,4 C
12.01.2012 01:27 7,8 C 91 % 1026,2 hPa 0,0 l/m 12,6 km/h (3 Bft) W-SW 247 6,4 C 5,6 C
12.01.2012 01:32 7,8 C 91 % 1026,1 hPa 0,0 l/m 12,6 km/h (3 Bft) W-SW 247 6,4 C 5,6 C
12.01.2012 01:37 7,8 C 91 % 1025,8 hPa 0,0 l/m 16,6 km/h (3 Bft) W-SW 247 6,4 C 5,0 C
12.01.2012 01:42 7,8 C 91 % 1025,9 hPa 0,0 l/m 8,6 km/h (2 Bft) W-SW 247 6,4 C 6,3 C
12.01.2012 01:47 7,9 C 90 % 1025,7 hPa 0,0 l/m 8,6 km/h (2 Bft) W 270 6,4 C 6,4 C
12.01.2012 01:52 7,9 C 90 % 1025,8 hPa 0,0 l/m 5,8 km/h (2 Bft) W 270 6,4 C 7,1 C
12.01.2012 01:57 7,9 C 90 % 1025,8 hPa 0,0 l/m 7,6 km/h (2 Bft) W 270 6,4 C 6,6 C
12.01.2012 02:02 7,9 C 90 % 1025,6 hPa 0,0 l/m 11,5 km/h (2 Bft) W-SW 247 6,4 C 5,9 C
12.01.2012 02:07 7,9 C 90 % 1025,6 hPa 0,0 l/m 8,6 km/h (2 Bft) W-SW 247 6,4 C 6,4 C
12.01.2012 02:12 7,9 C 90 % 1025,6 hPa 0,0 l/m 14,4 km/h (3 Bft) W-SW 247 6,4 C 5,4 C
12.01.2012 02:17 7,9 C 89 % 1025,5 hPa 0,0 l/m 14,4 km/h (3 Bft) W-SW 247 6,2 C 5,4 C
12.01.2012 02:22 7,9 C 89 % 1025,4 hPa 0,0 l/m 17,3 km/h (3 Bft) S-SW 202 6,2 C 5,0 C
12.01.2012 02:27 7,9 C 89 % 1025,4 hPa 0,0 l/m 8,6 km/h (2 Bft) W 270 6,2 C 6,4 C
12.01.2012 02:32 7,9 C 90 % 1025,1 hPa 0,0 l/m 9,0 km/h (2 Bft) W-SW 247 6,4 C 6,3 C
12.01.2012 02:37 7,9 C 90 % 1025,1 hPa 0,0 l/m 14,8 km/h (3 Bft) SW 225 6,4 C 5,4 C
12.01.2012 02:42 7,9 C 90 % 1025,1 hPa 0,0 l/m 12,2 km/h (2 Bft) W-SW 247 6,4 C 5,7 C
12.01.2012 02:47 7,9 C 89 % 1025,0 hPa 0,0 l/m 16,6 km/h (3 Bft) SW 225 6,2 C 5,1 C
12.01.2012 02:52 7,9 C 89 % 1025,0 hPa 0,0 l/m 10,1 km/h (2 Bft) W-SW 247 6,2 C 6,1 C
12.01.2012 02:57 8,0 C 89 % 1024,7 hPa 0,0 l/m 14,4 km/h (3 Bft) W 270 6,3 C 5,5 C
12.01.2012 03:02 8,1 C 89 % 1024,6 hPa 0,0 l/m 8,3 km/h (2 Bft) W-SW 247 6,4 C 6,7 C
12.01.2012 03:07 8,1 C 89 % 1024,5 hPa 0,0 l/m 15,5 km/h (3 Bft) W 270 6,4 C 5,5 C
12.01.2012 03:12 8,1 C 88 % 1024,4 hPa 0,0 l/m 11,2 km/h (2 Bft) W-SW 247 6,2 C 6,1 C
12.01.2012 03:17 8,1 C 88 % 1024,3 hPa 0,0 l/m 8,3 km/h (2 Bft) W 270 6,2 C 6,7 C
12.01.2012 03:22 8,1 C 88 % 1024,3 hPa 0,0 l/m 10,1 km/h (2 Bft) W-SW 247 6,2 C 6,3 C
12.01.2012 03:27 8,1 C 89 % 1024,1 hPa 0,0 l/m 16,2 km/h (3 Bft) SW 225 6,4 C 5,4 C
12.01.2012 03:32 8,1 C 88 % 1024,1 hPa 0,0 l/m 16,9 km/h (3 Bft) W-SW 247 6,2 C 5,3 C
12.01.2012 03:37 8,1 C 89 % 1024,0 hPa 0,0 l/m 19,4 km/h (3 Bft) W-SW 247 6,4 C 5,0 C
12.01.2012 03:42 8,1 C 89 % 1023,7 hPa 0,0 l/m 12,2 km/h (2 Bft) SW 225 6,4 C 6,0 C
12.01.2012 03:47 8,1 C 89 % 1023,6 hPa 0,0 l/m 17,3 km/h (3 Bft) SW 225 6,4 C 5,3 C
12.01.2012 03:52 8,1 C 89 % 1023,5 hPa 0,0 l/m 15,8 km/h (3 Bft) W 270 6,4 C 5,5 C
12.01.2012 03:57 8,1 C 89 % 1023,5 hPa 0,0 l/m 13,3 km/h (3 Bft) W-SW 247 6,4 C 5,8 C
12.01.2012 04:02 8,1 C 89 % 1023,4 hPa 0,0 l/m 10,1 km/h (2 Bft) W 270 6,4 C 6,3 C
12.01.2012 04:07 8,2 C 89 % 1023,2 hPa 0,0 l/m 26,3 km/h (4 Bft) W-SW 247 6,5 C 4,5 C
12.01.2012 04:12 8,2 C 89 % 1023,2 hPa 0,0 l/m 6,8 km/h (2 Bft) W-SW 247 6,5 C 7,2 C
12.01.2012 04:17 8,1 C 89 % 1023,1 hPa 0,0 l/m 20,2 km/h (4 Bft) W-SW 247 6,4 C 5,0 C
12.01.2012 04:22 8,2 C 89 % 1023,1 hPa 0,0 l/m 16,6 km/h (3 Bft) W-SW 247 6,5 C 5,5 C
12.01.2012 04:27 8,2 C 89 % 1023,0 hPa 0,0 l/m 10,1 km/h (2 Bft) W 270 6,5 C 6,5 C
12.01.2012 04:32 8,2 C 90 % 1022,8 hPa 0,0 l/m 27,0 km/h (4 Bft) W 270 6,7 C 4,5 C
12.01.2012 04:37 8,3 C 90 % 1022,7 hPa 0,0 l/m 16,2 km/h (3 Bft) W 270 6,8 C 5,7 C
12.01.2012 04:42 8,3 C 90 % 1022,6 hPa 0,0 l/m 15,8 km/h (3 Bft) NW 315 6,8 C 5,7 C
12.01.2012 04:47 8,3 C 90 % 1022,5 hPa 0,0 l/m 19,1 km/h (3 Bft) SW 225 6,8 C 5,3 C
12.01.2012 04:52 8,3 C 90 % 1022,5 hPa 0,0 l/m 27,0 km/h (4 Bft) W-SW 247 6,8 C 4,6 C
12.01.2012 04:57 8,3 C 90 % 1022,2 hPa 0,0 l/m 22,3 km/h (4 Bft) S 180 6,8 C 5,0 C
12.01.2012 05:02 8,3 C 90 % 1022,1 hPa 0,0 l/m 15,8 km/h (3 Bft) W 270 6,8 C 5,7 C
12.01.2012 05:07 8,3 C 90 % 1021,9 hPa 0,0 l/m 17,6 km/h (3 Bft) W-SW 247 6,8 C 5,5 C
12.01.2012 05:12 8,3 C 90 % 1021,8 hPa 0,0 l/m 23,4 km/h (4 Bft) W-SW 247 6,8 C 4,9 C
12.01.2012 05:17 8,3 C 90 % 1021,8 hPa 0,0 l/m 14,4 km/h (3 Bft) W 270 6,8 C 5,9 C
12.01.2012 05:22 8,3 C 89 % 1021,7 hPa 0,0 l/m 13,7 km/h (3 Bft) W 270 6,6 C 6,0 C
12.01.2012 05:27 8,3 C 89 % 1021,6 hPa 0,0 l/m 10,4 km/h (2 Bft) SW 225 6,6 C 6,5 C
12.01.2012 05:32 8,3 C 90 % 1021,5 hPa 0,0 l/m 10,8 km/h (2 Bft) W-SW 247 6,8 C 6,5 C
12.01.2012 05:37 8,3 C 90 % 1021,2 hPa 0,0 l/m 20,5 km/h (4 Bft) W 270 6,8 C 5,2 C
12.01.2012 05:42 8,3 C 90 % 1021,1 hPa 0,0 l/m 10,8 km/h (2 Bft) NW 315 6,8 C 6,5 C
12.01.2012 05:47 8,3 C 90 % 1021,0 hPa 0,0 l/m 27,0 km/h (4 Bft) W-SW 247 6,8 C 4,6 C
12.01.2012 05:52 8,3 C 90 % 1020,9 hPa 0,0 l/m 28,1 km/h (4 Bft) W-SW 247 6,8 C 4,5 C
12.01.2012 05:57 8,3 C 90 % 1020,7 hPa 0,0 l/m 13,7 km/h (3 Bft) W-SW 247 6,8 C 6,0 C
12.01.2012 06:02 8,3 C 90 % 1020,6 hPa 0,0 l/m 20,5 km/h (4 Bft) S-SW 202 6,8 C 5,2 C
12.01.2012 06:07 8,3 C 90 % 1020,6 hPa 0,0 l/m 15,8 km/h (3 Bft) W-SW 247 6,8 C 5,7 C
12.01.2012 06:12 8,3 C 90 % 1020,4 hPa 0,0 l/m 29,5 km/h (5 Bft) W-SW 247 6,8 C 4,4 C
12.01.2012 06:17 8,3 C 90 % 1020,3 hPa 0,0 l/m 16,9 km/h (3 Bft) W 270 6,8 C 5,6 C
12.01.2012 06:22 8,3 C 90 % 1020,3 hPa 0,0 l/m 21,2 km/h (4 Bft) W-SW 247 6,8 C 5,1 C
12.01.2012 06:27 8,3 C 90 % 1019,9 hPa 0,0 l/m 18,0 km/h (3 Bft) W 270 6,8 C 5,4 C
12.01.2012 06:32 8,3 C 90 % 1019,7 hPa 0,0 l/m 22,7 km/h (4 Bft) W 270 6,8 C 5,0 C
12.01.2012 06:37 8,3 C 90 % 1019,6 hPa 0,0 l/m 16,6 km/h (3 Bft) W-SW 247 6,8 C 5,6 C
12.01.2012 06:42 8,3 C 90 % 1019,5 hPa 0,0 l/m 19,1 km/h (3 Bft) SW 225 6,8 C 5,3 C
12.01.2012 06:47 8,4 C 90 % 1019,4 hPa 0,0 l/m 23,0 km/h (4 Bft) W-SW 247 6,9 C 5,1 C
12.01.2012 06:52 8,3 C 90 % 1019,4 hPa 0,0 l/m 5,0 km/h (1 Bft) W-SW 247 6,8 C 7,8 C
12.01.2012 06:57 8,4 C 90 % 1019,3 hPa 0,0 l/m 25,2 km/h (4 Bft) W-SW 247 6,9 C 4,9 C
12.01.2012 07:02 8,4 C 90 % 1019,3 hPa 0,0 l/m 25,9 km/h (4 Bft) W-SW 247 6,9 C 4,8 C
12.01.2012 07:07 8,4 C 90 % 1019,1 hPa 0,0 l/m 22,0 km/h (4 Bft) W-SW 247 6,9 C 5,2 C
12.01.2012 07:12 8,4 C 90 % 1019,0 hPa 0,0 l/m 18,0 km/h (3 Bft) W-SW 247 6,9 C 5,6 C
12.01.2012 07:17 8,4 C 90 % 1018,8 hPa 0,0 l/m 15,5 km/h (3 Bft) W 270 6,9 C 5,9 C
12.01.2012 07:22 8,4 C 89 % 1018,8 hPa 0,0 l/m 16,6 km/h (3 Bft) W-SW 247 6,7 C 5,7 C
12.01.2012 07:27 8,4 C 89 % 1018,5 hPa 0,0 l/m 22,0 km/h (4 Bft) W-SW 247 6,7 C 5,2 C
12.01.2012 07:32 8,4 C 89 % 1018,8 hPa 0,0 l/m 25,2 km/h (4 Bft) W 270 6,7 C 4,9 C
12.01.2012 07:37 8,5 C 89 % 1018,6 hPa 0,0 l/m 24,1 km/h (4 Bft) W-SW 247 6,8 C 5,1 C
12.01.2012 07:42 8,5 C 89 % 1018,6 hPa 0,0 l/m 15,8 km/h (3 Bft) W-SW 247 6,8 C 6,0 C
12.01.2012 07:47 8,5 C 89 % 1018,4 hPa 0,0 l/m 14,8 km/h (3 Bft) W 270 6,8 C 6,1 C
12.01.2012 07:52 8,5 C 89 % 1018,5 hPa 0,0 l/m 29,5 km/h (5 Bft) SW 225 6,8 C 4,7 C
12.01.2012 07:57 8,5 C 89 % 1018,5 hPa 0,0 l/m 24,1 km/h (4 Bft) W-SW 247 6,8 C 5,1 C
12.01.2012 08:02 8,5 C 89 % 1018,3 hPa 0,0 l/m 14,8 km/h (3 Bft) W 270 6,8 C 6,1 C
12.01.2012 08:07 8,5 C 89 % 1018,1 hPa 0,0 l/m 27,0 km/h (4 Bft) W-SW 247 6,8 C 4,8 C
12.01.2012 08:12 8,6 C 89 % 1018,1 hPa 0,0 l/m 15,8 km/h (3 Bft) SW 225 6,9 C 6,1 C
12.01.2012 08:17 8,5 C 89 % 1017,8 hPa 0,0 l/m 26,6 km/h (4 Bft) W-SW 247 6,8 C 4,9 C
12.01.2012 08:22 8,5 C 89 % 1017,9 hPa 0,0 l/m 23,0 km/h (4 Bft) SW 225 6,8 C 5,2 C
12.01.2012 08:27 8,6 C 89 % 1017,7 hPa 0,0 l/m 15,8 km/h (3 Bft) SW 225 6,9 C 6,1 C
12.01.2012 08:32 8,6 C 88 % 1017,6 hPa 0,0 l/m 27,4 km/h (4 Bft) W-SW 247 6,7 C 4,9 C
12.01.2012 08:37 8,6 C 88 % 1017,5 hPa 0,0 l/m 25,6 km/h (4 Bft) W-SW 247 6,7 C 5,1 C
12.01.2012 08:42 8,7 C 88 % 1017,4 hPa 0,0 l/m 23,0 km/h (4 Bft) W-SW 247 6,8 C 5,4 C
12.01.2012 08:47 8,7 C 88 % 1017,4 hPa 0,0 l/m 20,5 km/h (4 Bft) S-SO 157 6,8 C 5,7 C
12.01.2012 08:52 8,8 C 87 % 1017,4 hPa 0,0 l/m 17,3 km/h (3 Bft) W-SW 247 6,8 C 6,2 C
12.01.2012 08:57 8,8 C 87 % 1017,2 hPa 0,0 l/m 18,7 km/h (3 Bft) S-SW 202 6,8 C 6,0 C
12.01.2012 09:02 8,8 C 87 % 1017,1 hPa 0,0 l/m 23,0 km/h (4 Bft) W-SW 247 6,8 C 5,6 C
12.01.2012 09:07 8,8 C 87 % 1017,2 hPa 0,0 l/m 21,2 km/h (4 Bft) W 270 6,8 C 5,7 C
12.01.2012 09:12 8,8 C 87 % 1017,1 hPa 0,0 l/m 25,2 km/h (4 Bft) W 270 6,8 C 5,4 C
12.01.2012 09:17 8,9 C 87 % 1017,1 hPa 0,0 l/m 11,2 km/h (2 Bft) W 270 6,9 C 7,1 C
12.01.2012 09:22 8,9 C 86 % 1017,1 hPa 0,0 l/m 17,6 km/h (3 Bft) S-SW 202 6,7 C 6,2 C
12.01.2012 09:27 8,9 C 86 % 1016,7 hPa 0,0 l/m 17,6 km/h (3 Bft) SW 225 6,7 C 6,2 C
12.01.2012 09:32 8,9 C 86 % 1016,7 hPa 0,0 l/m 15,8 km/h (3 Bft) W 270 6,7 C 6,5 C
12.01.2012 09:37 8,9 C 86 % 1016,8 hPa 0,0 l/m 32,0 km/h (5 Bft) W-SW 247 6,7 C 5,0 C
12.01.2012 09:42 8,9 C 86 % 1016,6 hPa 0,0 l/m 34,9 km/h (5 Bft) W-SW 247 6,7 C 4,8 C
12.01.2012 09:47 8,9 C 86 % 1016,5 hPa 0,0 l/m 28,8 km/h (4 Bft) W-SW 247 6,7 C 5,2 C
12.01.2012 09:52 9,0 C 85 % 1016,5 hPa 0,0 l/m 25,2 km/h (4 Bft) W 270 6,6 C 5,6 C
12.01.2012 09:57 9,0 C 85 % 1016,3 hPa 0,0 l/m 16,9 km/h (3 Bft) W-SW 247 6,6 C 6,4 C
12.01.2012 10:02 9,0 C 85 % 1016,2 hPa 0,0 l/m 25,9 km/h (4 Bft) W 270 6,6 C 5,6 C
12.01.2012 10:07 9,1 C 85 % 1016,3 hPa 0,0 l/m 17,3 km/h (3 Bft) W-NW 292 6,7 C 6,5 C
12.01.2012 10:12 9,1 C 85 % 1016,2 hPa 0,0 l/m 30,6 km/h (5 Bft) W-SW 247 6,7 C 5,4 C
12.01.2012 10:17 9,1 C 85 % 1016,0 hPa 0,0 l/m 16,9 km/h (3 Bft) S-SW 202 6,7 C 6,6 C
12.01.2012 10:22 9,1 C 84 % 1015,9 hPa 0,0 l/m 23,0 km/h (4 Bft) W 270 6,5 C 6,0 C
12.01.2012 10:27 9,1 C 84 % 1015,9 hPa 0,0 l/m 14,8 km/h (3 Bft) W 270 6,5 C 6,8 C
12.01.2012 10:32 9,1 C 84 % 1015,7 hPa 0,0 l/m 13,3 km/h (3 Bft) W-NW 292 6,5 C 7,0 C
12.01.2012 10:37 9,2 C 84 % 1015,6 hPa 0,0 l/m 18,0 km/h (3 Bft) W-SW 247 6,6 C 6,6 C
12.01.2012 10:42 9,2 C 84 % 1015,6 hPa 0,0 l/m 20,5 km/h (4 Bft) W-SW 247 6,6 C 6,3 C
12.01.2012 10:47 9,2 C 84 % 1015,7 hPa 0,0 l/m 26,6 km/h (4 Bft) W-SW 247 6,6 C 5,8 C
12.01.2012 10:52 9,2 C 83 % 1015,4 hPa 0,0 l/m 32,0 km/h (5 Bft) SW 225 6,5 C 5,4 C
12.01.2012 10:57 9,2 C 83 % 1015,4 hPa 0,0 l/m 20,5 km/h (4 Bft) W-SW 247 6,5 C 6,3 C
12.01.2012 11:02 9,3 C 83 % 1015,3 hPa 0,0 l/m 22,3 km/h (4 Bft) NW 315 6,6 C 6,3 C
12.01.2012 11:07 9,3 C 83 % 1015,3 hPa 0,0 l/m 34,2 km/h (5 Bft) W-SW 247 6,6 C 5,4 C
12.01.2012 11:12 9,3 C 83 % 1015,2 hPa 0,0 l/m 18,4 km/h (3 Bft) W 270 6,6 C 6,7 C
12.01.2012 11:17 9,3 C 82 % 1014,6 hPa 0,0 l/m 30,2 km/h (5 Bft) W-SW 247 6,4 C 5,6 C
12.01.2012 11:22 9,3 C 82 % 1014,6 hPa 0,0 l/m 12,2 km/h (2 Bft) NW 315 6,4 C 7,4 C
12.01.2012 11:27 9,3 C 82 % 1014,4 hPa 0,0 l/m 19,4 km/h (3 Bft) W 270 6,4 C 6,6 C
12.01.2012 11:32 9,3 C 82 % 1014,2 hPa 0,0 l/m 25,9 km/h (4 Bft) W-SW 247 6,4 C 6,0 C
12.01.2012 11:37 9,3 C 81 % 1013,9 hPa 0,0 l/m 29,9 km/h (5 Bft) W-SW 247 6,2 C 5,7 C
12.01.2012 11:42 9,3 C 81 % 1013,8 hPa 0,0 l/m 20,9 km/h (4 Bft) W-SW 247 6,2 C 6,4 C
12.01.2012 11:47 9,3 C 81 % 1013,6 hPa 0,0 l/m 23,8 km/h (4 Bft) W 270 6,2 C 6,1 C
12.01.2012 11:52 9,3 C 81 % 1013,5 hPa 0,0 l/m 29,2 km/h (5 Bft) W 270 6,2 C 5,7 C
12.01.2012 11:57 9,4 C 80 % 1013,3 hPa 0,0 l/m 17,3 km/h (3 Bft) W-NW 292 6,1 C 6,9 C
12.01.2012 12:02 9,4 C 80 % 1013,1 hPa 0,0 l/m 12,2 km/h (2 Bft) S 180 6,1 C 7,6 C
12.01.2012 12:07 9,4 C 80 % 1013,0 hPa 0,0 l/m 28,8 km/h (4 Bft) W-SW 247 6,1 C 5,9 C
12.01.2012 12:12 9,4 C 80 % 1012,8 hPa 0,0 l/m 37,1 km/h (5 Bft) W-SW 247 6,1 C 5,3 C
12.01.2012 12:17 9,4 C 80 % 1012,7 hPa 0,0 l/m 19,1 km/h (3 Bft) W 270 6,1 C 6,7 C
12.01.2012 12:22 9,4 C 80 % 1012,7 hPa 0,0 l/m 27,7 km/h (4 Bft) W-SW 247 6,1 C 6,0 C
12.01.2012 12:27 9,4 C 80 % 1012,6 hPa 0,0 l/m 25,6 km/h (4 Bft) W-SW 247 6,1 C 6,1 C
12.01.2012 12:32 9,4 C 80 % 1012,5 hPa 0,0 l/m 24,8 km/h (4 Bft) W-NW 292 6,1 C 6,2 C
12.01.2012 12:37 9,3 C 80 % 1012,3 hPa 0,0 l/m 23,0 km/h (4 Bft) W-SW 247 6,0 C 6,2 C
12.01.2012 12:42 9,3 C 81 % 1012,2 hPa 0,0 l/m 24,1 km/h (4 Bft) W-SW 247 6,2 C 6,1 C
12.01.2012 12:47 9,3 C 80 % 1012,1 hPa 0,0 l/m 22,7 km/h (4 Bft) W-SW 247 6,0 C 6,2 C
12.01.2012 12:52 9,3 C 80 % 1011,9 hPa 0,0 l/m 13,0 km/h (3 Bft) W 270 6,0 C 7,3 C
12.01.2012 12:57 9,3 C 81 % 1012,0 hPa 0,0 l/m 20,9 km/h (4 Bft) SW 225 6,2 C 6,4 C
12.01.2012 13:02 9,3 C 81 % 1011,8 hPa 0,0 l/m 20,2 km/h (4 Bft) W 270 6,2 C 6,5 C
12.01.2012 13:07 9,3 C 81 % 1011,7 hPa 0,0 l/m 17,3 km/h (3 Bft) W-SW 247 6,2 C 6,8 C
12.01.2012 13:12 9,3 C 81 % 1011,7 hPa 0,0 l/m 31,0 km/h (5 Bft) W-SW 247 6,2 C 5,6 C
12.01.2012 13:17 9,3 C 81 % 1011,6 hPa 0,0 l/m 18,0 km/h (3 Bft) W 270 6,2 C 6,7 C
12.01.2012 13:22 9,2 C 81 % 1011,4 hPa 0,0 l/m 18,7 km/h (3 Bft) W 270 6,1 C 6,5 C
12.01.2012 13:27 9,2 C 81 % 1011,2 hPa 0,0 l/m 26,3 km/h (4 Bft) W-SW 247 6,1 C 5,8 C
12.01.2012 13:32 9,2 C 81 % 1011,0 hPa 0,0 l/m 26,6 km/h (4 Bft) W-SW 247 6,1 C 5,8 C
12.01.2012 13:37 9,2 C 81 % 1011,0 hPa 0,0 l/m 21,2 km/h (4 Bft) W-NW 292 6,1 C 6,2 C
12.01.2012 13:42 9,2 C 81 % 1010,8 hPa 0,0 l/m 24,5 km/h (4 Bft) W-SW 247 6,1 C 6,0 C
12.01.2012 13:47 9,2 C 82 % 1010,7 hPa 0,0 l/m 32,8 km/h (5 Bft) W 270 6,3 C 5,3 C
12.01.2012 13:52 9,2 C 82 % 1010,5 hPa 0,0 l/m 29,2 km/h (5 Bft) SW 225 6,3 C 5,6 C
12.01.2012 13:57 9,2 C 82 % 1010,5 hPa 0,0 l/m 21,2 km/h (4 Bft) W-SW 247 6,3 C 6,2 C
12.01.2012 14:02 9,2 C 82 % 1010,5 hPa 0,0 l/m 14,4 km/h (3 Bft) W 270 6,3 C 7,0 C
12.01.2012 14:07 9,2 C 82 % 1010,3 hPa 0,0 l/m 16,6 km/h (3 Bft) W-SW 247 6,3 C 6,7 C
12.01.2012 14:12 9,2 C 83 % 1010,2 hPa 0,0 l/m 31,7 km/h (5 Bft) W 270 6,5 C 5,4 C
12.01.2012 14:17 9,2 C 83 % 1010,0 hPa 0,0 l/m 23,4 km/h (4 Bft) W-SW 247 6,5 C 6,0 C
12.01.2012 14:22 9,2 C 83 % 1009,8 hPa 0,0 l/m 31,0 km/h (5 Bft) W 270 6,5 C 5,5 C
12.01.2012 14:27 9,2 C 83 % 1009,9 hPa 0,0 l/m 22,7 km/h (4 Bft) W 270 6,5 C 6,1 C
12.01.2012 14:32 9,2 C 83 % 1009,8 hPa 0,0 l/m 20,2 km/h (4 Bft) W 270 6,5 C 6,3 C
12.01.2012 14:37 9,2 C 83 % 1009,6 hPa 0,0 l/m 23,4 km/h (4 Bft) W-SW 247 6,5 C 6,0 C
12.01.2012 14:42 9,2 C 83 % 1009,5 hPa 0,0 l/m 23,0 km/h (4 Bft) W-SW 247 6,5 C 6,1 C
12.01.2012 14:47 9,2 C 83 % 1009,5 hPa 0,0 l/m 23,0 km/h (4 Bft) W-SW 247 6,5 C 6,1 C
12.01.2012 14:52 9,3 C 83 % 1009,3 hPa 0,0 l/m 16,6 km/h (3 Bft) S 180 6,6 C 6,9 C
12.01.2012 14:57 9,2 C 83 % 1009,4 hPa 0,0 l/m 28,8 km/h (4 Bft) SW 225 6,5 C 5,6 C
12.01.2012 15:02 9,2 C 83 % 1009,3 hPa 0,0 l/m 17,6 km/h (3 Bft) W 270 6,5 C 6,6 C
12.01.2012 15:07 9,2 C 83 % 1009,2 hPa 0,0 l/m 23,0 km/h (4 Bft) W-SW 247 6,5 C 6,1 C
12.01.2012 15:12 9,2 C 83 % 1009,2 hPa 0,0 l/m 24,1 km/h (4 Bft) W-SW 247 6,5 C 6,0 C
12.01.2012 15:17 9,2 C 83 % 1009,0 hPa 0,0 l/m 24,8 km/h (4 Bft) W-SW 247 6,5 C 5,9 C
12.01.2012 15:22 9,2 C 83 % 1008,9 hPa 0,0 l/m 15,8 km/h (3 Bft) W 270 6,5 C 6,8 C
12.01.2012 15:27 9,1 C 84 % 1008,9 hPa 0,0 l/m 22,7 km/h (4 Bft) O-SO 112 6,5 C 6,0 C
12.01.2012 15:32 9,1 C 84 % 1008,8 hPa 0,0 l/m 20,9 km/h (4 Bft) W-SW 247 6,5 C 6,2 C
12.01.2012 15:37 9,1 C 84 % 1008,8 hPa 0,0 l/m 22,0 km/h (4 Bft) W-SW 247 6,5 C 6,0 C
12.01.2012 15:42 9,0 C 84 % 1008,8 hPa 0,0 l/m 14,4 km/h (3 Bft) W-SW 247 6,4 C 6,8 C
12.01.2012 15:47 9,1 C 84 % 1008,7 hPa 0,0 l/m 24,1 km/h (4 Bft) W 270 6,5 C 5,9 C
12.01.2012 15:52 9,1 C 83 % 1008,5 hPa 0,0 l/m 29,9 km/h (5 Bft) W-SW 247 6,4 C 5,4 C
12.01.2012 15:57 9,1 C 82 % 1008,6 hPa 0,0 l/m 37,8 km/h (5 Bft) W 270 6,2 C 4,9 C
12.01.2012 16:02 9,1 C 82 % 1008,5 hPa 0,0 l/m 34,9 km/h (5 Bft) W 270 6,2 C 5,1 C
12.01.2012 16:07 9,2 C 81 % 1008,5 hPa 0,0 l/m 40,0 km/h (6 Bft) SW 225 6,1 C 4,9 C
12.01.2012 16:12 9,2 C 81 % 1008,4 hPa 0,0 l/m 31,7 km/h (5 Bft) W-NW 292 6,1 C 5,4 C
12.01.2012 16:17 9,2 C 80 % 1008,4 hPa 0,0 l/m 25,9 km/h (4 Bft) W-SW 247 5,9 C 5,8 C
12.01.2012 16:22 9,2 C 81 % 1008,6 hPa 0,0 l/m 34,9 km/h (5 Bft) W-NW 292 6,1 C 5,2 C
12.01.2012 16:27 9,1 C 81 % 1008,6 hPa 0,0 l/m 31,0 km/h (5 Bft) NW 315 6,0 C 5,3 C
12.01.2012 16:32 9,1 C 81 % 1008,6 hPa 0,0 l/m 20,9 km/h (4 Bft) W 270 6,0 C 6,2 C
12.01.2012 16:37 9,0 C 81 % 1008,7 hPa 0,0 l/m 15,1 km/h (3 Bft) W 270 5,9 C 6,7 C
12.01.2012 16:42 8,9 C 82 % 1008,5 hPa 0,0 l/m 16,6 km/h (3 Bft) SW 225 6,0 C 6,4 C
12.01.2012 16:47 8,9 C 82 % 1008,6 hPa 0,0 l/m 32,0 km/h (5 Bft) W-NW 292 6,0 C 5,0 C
12.01.2012 16:52 8,9 C 82 % 1008,7 hPa 0,0 l/m 24,8 km/h (4 Bft) W-SW 247 6,0 C 5,5 C
12.01.2012 16:57 8,9 C 81 % 1008,8 hPa 0,0 l/m 33,8 km/h (5 Bft) W-SW 247 5,8 C 4,9 C
12.01.2012 17:02 8,9 C 79 % 1008,9 hPa 0,0 l/m 32,8 km/h (5 Bft) W 270 5,5 C 4,9 C
12.01.2012 17:07 8,8 C 79 % 1009,1 hPa 0,0 l/m 16,9 km/h (3 Bft) W 270 5,4 C 6,2 C
12.01.2012 17:12 8,6 C 79 % 1009,5 hPa 0,0 l/m 23,8 km/h (4 Bft) W-SW 247 5,2 C 5,2 C
12.01.2012 17:17 8,5 C 79 % 1009,5 hPa 0,0 l/m 18,4 km/h (3 Bft) W-NW 292 5,1 C 5,7 C
12.01.2012 17:22 8,3 C 79 % 1009,7 hPa 0,0 l/m 25,2 km/h (4 Bft) N 360 4,9 C 4,7 C
12.01.2012 17:27 8,1 C 78 % 1009,8 hPa 0,0 l/m 12,6 km/h (3 Bft) NW 315 4,5 C 5,9 C
12.01.2012 17:32 7,9 C 77 % 1010,0 hPa 0,0 l/m 16,9 km/h (3 Bft) NW 315 4,1 C 5,1 C
12.01.2012 17:37 7,8 C 77 % 1010,2 hPa 0,0 l/m 16,9 km/h (3 Bft) W 270 4,0 C 5,0 C
12.01.2012 17:42 7,5 C 77 % 1010,2 hPa 0,0 l/m 20,9 km/h (4 Bft) W 270 3,7 C 4,1 C
12.01.2012 17:47 7,3 C 76 % 1010,5 hPa 0,0 l/m 23,8 km/h (4 Bft) W 270 3,4 C 3,6 C
12.01.2012 17:52 7,2 C 75 % 1010,8 hPa 0,0 l/m 20,5 km/h (4 Bft) NW 315 3,1 C 3,8 C
12.01.2012 17:57 7,1 C 75 % 1010,9 hPa 0,0 l/m 18,4 km/h (3 Bft) NW 315 3,0 C 3,9 C
12.01.2012 18:02 7,0 C 76 % 1011,0 hPa 0,0 l/m 29,2 km/h (5 Bft) N 360 3,1 C 2,7 C
12.01.2012 18:07 6,9 C 76 % 1011,1 hPa 0,0 l/m 11,5 km/h (2 Bft) W-SW 247 3,0 C 4,6 C
12.01.2012 18:12 6,9 C 76 % 1011,1 hPa 0,0 l/m 25,9 km/h (4 Bft) NW 315 3,0 C 2,9 C
12.01.2012 18:17 6,9 C 77 % 1011,2 hPa 0,0 l/m 18,7 km/h (3 Bft) W 270 3,2 C 3,6 C
12.01.2012 18:22 6,8 C 77 % 1011,7 hPa 0,0 l/m 23,4 km/h (4 Bft) NW 315 3,1 C 3,0 C
12.01.2012 18:27 6,5 C 78 % 1011,6 hPa 0,0 l/m 13,0 km/h (3 Bft) NW 315 2,9 C 3,9 C
12.01.2012 18:32 6,3 C 79 % 1011,6 hPa 0,0 l/m 22,3 km/h (4 Bft) NW 315 2,9 C 2,5 C
12.01.2012 18:37 6,1 C 79 % 1011,6 hPa 0,0 l/m 20,9 km/h (4 Bft) N-NW 337 2,7 C 2,4 C
12.01.2012 18:42 6,0 C 79 % 1011,8 hPa 0,0 l/m 34,6 km/h (5 Bft) NW 315 2,6 C 1,0 C
12.01.2012 18:47 5,9 C 79 % 1011,9 hPa 0,0 l/m 20,2 km/h (4 Bft) W 270 2,5 C 2,2 C
12.01.2012 18:52 5,9 C 78 % 1011,9 hPa 0,0 l/m 17,6 km/h (3 Bft) W-NW 292 2,4 C 2,5 C
12.01.2012 18:57 5,8 C 78 % 1012,0 hPa 0,0 l/m 37,8 km/h (5 Bft) W-NW 292 2,3 C 0,5 C
12.01.2012 19:02 5,7 C 77 % 1011,9 hPa 0,0 l/m 23,0 km/h (4 Bft) W 270 2,0 C 1,6 C
12.01.2012 19:07 5,6 C 77 % 1012,0 hPa 0,0 l/m 22,7 km/h (4 Bft) W-NW 292 1,9 C 1,5 C
12.01.2012 19:12 5,6 C 77 % 1012,1 hPa 0,0 l/m 29,5 km/h (5 Bft) W-NW 292 1,9 C 0,9 C
12.01.2012 19:17 5,6 C 77 % 1012,2 hPa 0,0 l/m 25,6 km/h (4 Bft) NW 315 1,9 C 1,2 C
12.01.2012 19:22 5,5 C 77 % 1012,4 hPa 0,0 l/m 30,6 km/h (5 Bft) W-NW 292 1,8 C 0,7 C
12.01.2012 19:27 5,5 C 76 % 1012,2 hPa 0,0 l/m 28,8 km/h (4 Bft) W-NW 292 1,6 C 0,8 C
12.01.2012 19:32 5,5 C 76 % 1012,4 hPa 0,0 l/m 29,5 km/h (5 Bft) W 270 1,6 C 0,7 C
12.01.2012 19:37 5,5 C 75 % 1012,4 hPa 0,0 l/m 14,4 km/h (3 Bft) W 270 1,4 C 2,5 C
12.01.2012 19:42 5,5 C 75 % 1012,6 hPa 0,0 l/m 14,0 km/h (3 Bft) W-NW 292 1,4 C 2,5 C
12.01.2012 19:47 5,4 C 75 % 1012,9 hPa 0,0 l/m 20,9 km/h (4 Bft) W-NW 292 1,3 C 1,5 C
12.01.2012 19:52 5,4 C 76 % 1012,7 hPa 0,0 l/m 23,4 km/h (4 Bft) W-NW 292 1,5 C 1,2 C
12.01.2012 19:57 5,3 C 77 % 1012,8 hPa 0,0 l/m 19,1 km/h (3 Bft) W-NW 292 1,6 C 1,6 C
12.01.2012 20:02 5,3 C 77 % 1012,8 hPa 0,0 l/m 19,4 km/h (3 Bft) W-NW 292 1,6 C 1,5 C
12.01.2012 20:07 5,3 C 77 % 1013,0 hPa 0,0 l/m 11,5 km/h (2 Bft) W 270 1,6 C 2,7 C
12.01.2012 20:12 5,2 C 77 % 1013,0 hPa 0,0 l/m 16,2 km/h (3 Bft) W-NW 292 1,5 C 1,8 C
12.01.2012 20:17 5,2 C 77 % 1013,3 hPa 0,0 l/m 25,2 km/h (4 Bft) W 270 1,5 C 0,8 C
12.01.2012 20:22 5,2 C 77 % 1013,3 hPa 0,0 l/m 19,1 km/h (3 Bft) NW 315 1,5 C 1,4 C
12.01.2012 20:27 5,2 C 77 % 1013,2 hPa 0,0 l/m 24,1 km/h (4 Bft) NW 315 1,5 C 0,9 C
12.01.2012 20:32 5,2 C 77 % 1013,4 hPa 0,0 l/m 15,8 km/h (3 Bft) W 270 1,5 C 1,9 C
12.01.2012 20:37 5,2 C 76 % 1013,5 hPa 0,0 l/m 20,2 km/h (4 Bft) W-NW 292 1,3 C 1,3 C
12.01.2012 20:42 5,2 C 76 % 1013,3 hPa 0,0 l/m 11,5 km/h (2 Bft) W 270 1,3 C 2,6 C
12.01.2012 20:47 5,2 C 76 % 1013,5 hPa 0,0 l/m 10,4 km/h (2 Bft) W-NW 292 1,3 C 2,8 C
12.01.2012 20:52 5,1 C 75 % 1013,6 hPa 0,0 l/m 22,0 km/h (4 Bft) W 270 1,0 C 1,0 C
12.01.2012 20:57 5,1 C 76 % 1013,7 hPa 0,0 l/m 29,9 km/h (5 Bft) W-NW 292 1,2 C 0,2 C
12.01.2012 21:02 5,1 C 76 % 1013,7 hPa 0,0 l/m 18,7 km/h (3 Bft) W 270 1,2 C 1,4 C
12.01.2012 21:07 5,0 C 76 % 1013,9 hPa 0,0 l/m 15,8 km/h (3 Bft) NW 315 1,1 C 1,6 C
12.01.2012 21:12 4,9 C 76 % 1013,9 hPa 0,0 l/m 21,6 km/h (4 Bft) NW 315 1,0 C 0,8 C
12.01.2012 21:17 4,9 C 76 % 1014,1 hPa 0,0 l/m 15,8 km/h (3 Bft) W-NW 292 1,0 C 1,5 C
12.01.2012 21:22 4,9 C 76 % 1013,9 hPa 0,0 l/m 32,4 km/h (5 Bft) W-NW 292 1,0 C -0,3 C
12.01.2012 21:27 4,9 C 76 % 1013,9 hPa 0,0 l/m 19,4 km/h (3 Bft) W-NW 292 1,0 C 1,0 C
12.01.2012 21:32 4,9 C 76 % 1014,1 hPa 0,0 l/m 20,5 km/h (4 Bft) W-NW 292 1,0 C 0,9 C
12.01.2012 21:37 4,8 C 76 % 1014,4 hPa 0,0 l/m 26,3 km/h (4 Bft) NW 315 0,9 C 0,1 C
12.01.2012 21:42 4,9 C 76 % 1014,4 hPa 0,0 l/m 26,3 km/h (4 Bft) NW 315 1,0 C 0,3 C
12.01.2012 21:47 4,9 C 76 % 1014,4 hPa 0,0 l/m 22,0 km/h (4 Bft) W-NW 292 1,0 C 0,7 C
12.01.2012 21:52 4,9 C 76 % 1014,4 hPa 0,0 l/m 15,5 km/h (3 Bft) W-NW 292 1,0 C 1,5 C
12.01.2012 21:57 4,8 C 76 % 1014,6 hPa 0,0 l/m 11,2 km/h (2 Bft) W-NW 292 0,9 C 2,2 C
12.01.2012 22:02 4,7 C 76 % 1014,5 hPa 0,0 l/m 17,6 km/h (3 Bft) W-NW 292 0,8 C 1,0 C
12.01.2012 22:07 4,6 C 76 % 1014,6 hPa 0,0 l/m 18,0 km/h (3 Bft) W 270 0,7 C 0,8 C
12.01.2012 22:12 4,6 C 76 % 1014,5 hPa 0,0 l/m 18,7 km/h (3 Bft) NW 315 0,7 C 0,7 C
12.01.2012 22:17 4,5 C 76 % 1014,5 hPa 0,0 l/m 8,6 km/h (2 Bft) W 270 0,6 C 2,4 C
12.01.2012 22:22 4,5 C 77 % 1014,6 hPa 0,0 l/m 11,9 km/h (2 Bft) W-SW 247 0,8 C 1,7 C
12.01.2012 22:27 4,4 C 77 % 1014,8 hPa 0,0 l/m 19,4 km/h (3 Bft) W 270 0,7 C 0,4 C
12.01.2012 22:32 4,4 C 77 % 1014,8 hPa 0,0 l/m 12,2 km/h (2 Bft) W 270 0,7 C 1,5 C
12.01.2012 22:37 4,4 C 77 % 1014,8 hPa 0,0 l/m 21,2 km/h (4 Bft) W 270 0,7 C 0,2 C
12.01.2012 22:42 4,3 C 78 % 1014,8 hPa 0,0 l/m 9,4 km/h (2 Bft) W-SW 247 0,8 C 2,0 C
12.01.2012 22:47 4,3 C 78 % 1015,0 hPa 0,0 l/m 9,0 km/h (2 Bft) W-SW 247 0,8 C 2,1 C
12.01.2012 22:52 4,3 C 78 % 1014,9 hPa 0,0 l/m 15,5 km/h (3 Bft) W-NW 292 0,8 C 0,8 C
12.01.2012 22:57 4,3 C 78 % 1014,8 hPa 0,0 l/m 19,8 km/h (3 Bft) W-NW 292 0,8 C 0,2 C
12.01.2012 23:02 4,3 C 79 % 1014,9 hPa 0,0 l/m 25,6 km/h (4 Bft) W-NW 292 1,0 C -0,4 C
12.01.2012 23:07 4,3 C 79 % 1014,8 hPa 0,0 l/m 20,9 km/h (4 Bft) W 270 1,0 C 0,1 C
12.01.2012 23:12 4,2 C 79 % 1014,9 hPa 0,0 l/m 25,9 km/h (4 Bft) W 270 0,9 C -0,6 C
12.01.2012 23:17 4,2 C 79 % 1014,9 hPa 0,0 l/m 7,2 km/h (2 Bft) W-SW 247 0,9 C 2,4 C
12.01.2012 23:22 4,2 C 79 % 1015,0 hPa 0,0 l/m 25,6 km/h (4 Bft) NW 315 0,9 C -0,6 C
12.01.2012 23:27 4,1 C 79 % 1015,1 hPa 0,0 l/m 9,7 km/h (2 Bft) W-NW 292 0,8 C 1,7 C
12.01.2012 23:32 4,1 C 80 % 1015,2 hPa 0,0 l/m 10,8 km/h (2 Bft) W-NW 292 1,0 C 1,4 C
12.01.2012 23:37 4,1 C 80 % 1015,1 hPa 0,0 l/m 20,9 km/h (4 Bft) NW 315 1,0 C -0,2 C
12.01.2012 23:42 4,1 C 80 % 1015,1 hPa 0,0 l/m 16,2 km/h (3 Bft) W 270 1,0 C 0,5 C
12.01.2012 23:47 3,9 C 81 % 1015,1 hPa 0,0 l/m 21,6 km/h (4 Bft) W-NW 292 0,9 C -0,5 C
12.01.2012 23:52 4,0 C 81 % 1015,0 hPa 0,0 l/m 16,9 km/h (3 Bft) NW 315 1,0 C 0,2 C
12.01.2012 23:57 4,0 C 81 % 1015,0 hPa 0,0 l/m 16,6 km/h (3 Bft) W 270 1,0 C 0,3 C
_ Min-Zeit 23:47 17:52 16:12 - 06:52 - - 22:17 23:12
Minimum _ 3,9 C 75 % 1008,4 hPa - 5,0 km/h (1 Bft) - - 0,6 C -0,6 C
_ Max-Zeit 11:57 00:02 00:02 00:02 16:07 - - 08:12 06:52
Maximum _ 9,4 C 91 % 1027,4 hPa 0,0 l/m 40,0 km/h
SW (6 Bft)
- - 6,9 C 7,8 C
Durchschnitt _ 7,7 C 84 % 1016,3 hPa #0,0 l/m 20,0 km/h (4 Bft) W-SW - 5,1 C 4,6 C
(c) by David Heller